Sally — WDC3701 — position and weather

sailwx.info

Track history (hours):
 
Tides and Currents Weather Stations Pressure Air Temp Water Temp Dewpoint Dewpoint Depression Visibility Wind Speed Wind Dir Waves Ship Positions

Sally

Owner: Wilmington Tug, Inc., New Castle, DE. More information available from US FCC via Universal Licensing System and Coast Guard Vessel Documentation Center.

Last reported at 2017-Sep-19 22:00 UTC. Time now 2017-Sep-19 22:25 UTC.
Position N 39°43' W 075°31'.

Length 24 m; draft 4 m.

Type: Tug. MMSI: 367012660.

Date/timePositionNaut miles runAvg speedWind from/ knotsBaromVisibWave heightAir tempDewpointWater temp
2017-Sep-19 22:00N 39°43' W 075°31'0 0.0
2017-Sep-19 21:30N 39°43' W 075°31'0 0.0
2017-Sep-19 21:00N 39°43' W 075°31'0 0.0
2017-Sep-19 20:30N 39°43' W 075°31'0 0.0
2017-Sep-19 20:00N 39°43' W 075°31'0 0.0
2017-Sep-19 19:30N 39°43' W 075°31'0 0.0
2017-Sep-19 19:00N 39°43' W 075°31'0 0.0
2017-Sep-19 18:31N 39°43' W 075°31'0 0.0
2017-Sep-19 18:00N 39°43' W 075°31'0 0.0
2017-Sep-19 17:31N 39°43' W 075°31'0 0.0
2017-Sep-19 17:00N 39°43' W 075°31'0 0.0
2017-Sep-19 16:31N 39°43' W 075°31'0 0.0
2017-Sep-19 16:00N 39°43' W 075°31'0 0.0
2017-Sep-19 15:30N 39°43' W 075°31'0 0.0
2017-Sep-19 15:00N 39°43' W 075°31'0 0.0
2017-Sep-19 14:30N 39°43' W 075°31'0 0.0
2017-Sep-19 14:00N 39°43' W 075°31'0 0.0
2017-Sep-19 13:30N 39°43' W 075°31'0 0.0
2017-Sep-19 13:00N 39°43' W 075°31'0 0.0
2017-Sep-19 12:30N 39°43' W 075°31'0 0.0
2017-Sep-19 12:00N 39°43' W 075°31'0 0.0
2017-Sep-19 11:30N 39°43' W 075°31'0 0.0
2017-Sep-19 11:00N 39°43' W 075°31'0 0.0
2017-Sep-19 10:30N 39°43' W 075°31'0 0.0
2017-Sep-19 10:00N 39°43' W 075°31'0 0.0
2017-Sep-19 09:30N 39°43' W 075°31'0 0.0
2017-Sep-19 09:01N 39°43' W 075°31'0 0.0
2017-Sep-19 08:31N 39°43' W 075°31'0 0.0
2017-Sep-19 08:00N 39°43' W 075°31'0 0.0
2017-Sep-19 07:31N 39°43' W 075°31'0 0.0
2017-Sep-19 07:00N 39°43' W 075°31'0 0.0
2017-Sep-19 06:30N 39°43' W 075°31'0 0.0
2017-Sep-19 06:00N 39°43' W 075°31'0 0.0
2017-Sep-19 05:30N 39°43' W 075°31'0 0.5
2017-Sep-19 05:01N 39°43' W 075°31'0 0.2
2017-Sep-19 04:31N 39°43' W 075°31'0 0.4
2017-Sep-19 04:01N 39°43' W 075°31'0 0.7
2017-Sep-19 03:31N 39°43' W 075°31'0 0.0
2017-Sep-19 03:01N 39°43' W 075°31'0 0.0
2017-Sep-19 02:30N 39°43' W 075°31'0 0.0
2017-Sep-19 02:00N 39°43' W 075°31'0 0.0
2017-Sep-19 01:30N 39°43' W 075°31'0 0.0
2017-Sep-19 01:00N 39°43' W 075°31'0 0.0
2017-Sep-19 00:30N 39°43' W 075°31'0 0.0
2017-Sep-19 00:00N 39°43' W 075°31'0 0.0
2017-Sep-18 23:30N 39°43' W 075°31'2 3.9
2017-Sep-18 23:01N 39°45' W 075°30'510.6
2017-Sep-18 22:30N 39°48' W 075°25'612.0
2017-Sep-18 22:01N 39°51' W 075°18'611.7
2017-Sep-18 21:30N 39°53' W 075°10'4 8.8
2017-Sep-18 21:00N 39°57' W 075°08'510.4
2017-Sep-18 20:30N 40°00' W 075°03'510.9
2017-Sep-18 20:00N 40°04' W 074°57'5 9.9
2017-Sep-18 19:30N 40°06' W 074°51'4 6.7
2017-Sep-18 18:58N 40°07' W 074°47'2 3.7
2017-Sep-18 18:28N 40°08' W 074°45'0 0.2
2017-Sep-18 17:57N 40°08' W 074°45'4 8.4
2017-Sep-18 17:30N 40°07' W 074°50'4 8.4
2017-Sep-18 17:00N 40°04' W 074°54'5 9.5
2017-Sep-18 16:30N 40°02' W 074°60'611.1
2017-Sep-18 16:01N 39°59' W 075°05'4 8.1
2017-Sep-18 15:30N 39°55' W 075°08'5 9.4
2017-Sep-18 15:00N 39°52' W 075°13'4 9.0
2017-Sep-18 14:30N 39°51' W 075°18'612.3
2017-Sep-18 14:00N 39°48' W 075°25'611.4
2017-Sep-18 13:30N 39°44' W 075°30'1 1.9
2017-Sep-18 13:00N 39°43' W 075°31'0 0.0
2017-Sep-18 12:31N 39°43' W 075°31'0 0.0
2017-Sep-18 12:01N 39°43' W 075°31'0 0.0
2017-Sep-18 11:31N 39°43' W 075°31'0 0.0
2017-Sep-18 11:01N 39°43' W 075°31'0 0.5
2017-Sep-18 10:31N 39°43' W 075°31'0 0.6
2017-Sep-18 10:00N 39°43' W 075°31'1 2.1
2017-Sep-18 09:31N 39°42' W 075°31'1 2.1
2017-Sep-18 09:01N 39°43' W 075°31'0 0.0
2017-Sep-18 08:31N 39°43' W 075°31'0 0.0
2017-Sep-18 08:01N 39°43' W 075°31'0 0.0
2017-Sep-18 07:30N 39°43' W 075°31'0 0.0
2017-Sep-18 07:01N 39°43' W 075°31'0 0.0
2017-Sep-18 06:30N 39°43' W 075°31'0 0.0
2017-Sep-18 06:01N 39°43' W 075°31'0 0.0
2017-Sep-18 05:31N 39°43' W 075°31'0 0.0
2017-Sep-18 05:00N 39°43' W 075°31'0 0.0
2017-Sep-18 04:30N 39°43' W 075°31'0 0.0
2017-Sep-18 04:00N 39°43' W 075°31'5 9.3
2017-Sep-18 03:31N 39°39' W 075°34'4 8.1
2017-Sep-18 03:01N 39°35' W 075°36'0 0.0
2017-Sep-18 02:31N 39°35' W 075°36'0 0.3
2017-Sep-18 02:01N 39°35' W 075°35'1 2.7
2017-Sep-18 01:31N 39°34' W 075°34'1 2.7
2017-Sep-18 01:01N 39°35' W 075°35'0 0.3
2017-Sep-18 00:30N 39°35' W 075°36'0 0.1
2017-Sep-18 00:01N 39°35' W 075°36'0 0.4
2017-Sep-17 23:31N 39°35' W 075°35'0 0.2
2017-Sep-17 23:00N 39°35' W 075°35'3 5.2
2017-Sep-17 22:30N 39°38' W 075°36'510.4
2017-Sep-17 22:00N 39°42' W 075°31'3 5.1
2017-Sep-17 21:30N 39°44' W 075°30'510.3
2017-Sep-17 21:00N 39°48' W 075°26'0 0.0
2017-Sep-17 20:30N 39°48' W 075°26'0 0.0
2017-Sep-17 20:00N 39°48' W 075°26'0 0.0
2017-Sep-17 19:30N 39°48' W 075°26'0 0.0
2017-Sep-17 19:00N 39°48' W 075°26'510.7
2017-Sep-17 18:30N 39°51' W 075°20'3 5.8
2017-Sep-17 18:00N 39°51' W 075°16'0 0.0
2017-Sep-17 17:30N 39°51' W 075°16'1 1.3
2017-Sep-17 17:00N 39°51' W 075°17'1 2.5
2017-Sep-17 16:31N 39°51' W 075°19'2 4.6
2017-Sep-17 16:00N 39°51' W 075°16'0 0.0
2017-Sep-17 15:30N 39°51' W 075°16'0 0.0
2017-Sep-17 15:01N 39°51' W 075°16'0 0.0
2017-Sep-17 14:31N 39°51' W 075°16'0 0.8
2017-Sep-17 14:00N 39°51' W 075°16'0 0.0
2017-Sep-17 13:30N 39°51' W 075°16'4 8.1
2017-Sep-17 13:00N 39°50' W 075°21'611.3
2017-Sep-17 12:30N 39°47' W 075°28'5 9.6
2017-Sep-17 12:01N 39°43' W 075°31'0 0.0
2017-Sep-17 11:30N 39°43' W 075°31'0 0.0
2017-Sep-17 11:00N 39°43' W 075°31'0 0.0
2017-Sep-17 10:30N 39°43' W 075°31'0 0.0
2017-Sep-17 10:00N 39°43' W 075°31'0 0.0
2017-Sep-17 09:31N 39°43' W 075°31'0 0.0
2017-Sep-17 09:01N 39°43' W 075°31'0 0.0
2017-Sep-17 08:30N 39°43' W 075°31'0 0.0
2017-Sep-17 08:00N 39°43' W 075°31'0 0.0
2017-Sep-17 07:30N 39°43' W 075°31'0 0.0
2017-Sep-17 07:00N 39°43' W 075°31'0 0.0
2017-Sep-17 06:31N 39°43' W 075°31'0 0.0
2017-Sep-17 06:01N 39°43' W 075°31'0 0.0
2017-Sep-17 05:31N 39°43' W 075°31'0 0.0
2017-Sep-17 05:01N 39°43' W 075°31'0 0.0
2017-Sep-17 04:31N 39°43' W 075°31'0 0.0
2017-Sep-17 04:00N 39°43' W 075°31'0 0.0
2017-Sep-17 03:31N 39°43' W 075°31'0 0.0
2017-Sep-17 03:01N 39°43' W 075°31'0 0.0
2017-Sep-17 02:31N 39°43' W 075°31'0 0.0
2017-Sep-17 02:00N 39°43' W 075°31'0 0.0
2017-Sep-17 01:31N 39°43' W 075°31'0 0.0
2017-Sep-17 01:01N 39°43' W 075°31'0 0.0
2017-Sep-17 00:30N 39°43' W 075°31'0 0.0
2017-Sep-17 00:00N 39°43' W 075°31'0 0.0
2017-Sep-16 23:31N 39°43' W 075°31'0 0.6
2017-Sep-16 23:00N 39°43' W 075°31'5 9.3
2017-Sep-16 22:30N 39°47' W 075°28'3 5.9
2017-Sep-16 22:00N 39°49' W 075°24'1 2.9
2017-Sep-16 21:30N 39°49' W 075°23'2 4.6
2017-Sep-16 21:00N 39°51' W 075°21'0 0.0
2017-Sep-16 20:30N 39°51' W 075°21'0 0.0
2017-Sep-16 20:00N 39°51' W 075°21'0 0.0
2017-Sep-16 19:30N 39°51' W 075°21'0 0.0
2017-Sep-16 19:00N 39°51' W 075°21'0 0.0
2017-Sep-16 18:30N 39°51' W 075°21'2 3.1
2017-Sep-16 18:00N 39°51' W 075°18'4 7.5
2017-Sep-16 17:30N 39°52' W 075°14'0 0.1
2017-Sep-16 17:00N 39°52' W 075°14'1 1.0
2017-Sep-16 16:30N 39°51' W 075°14'3 6.0
2017-Sep-16 16:00N 39°51' W 075°18'4 8.6
2017-Sep-16 15:30N 39°49' W 075°23'4 8.0
2017-Sep-16 15:00N 39°47' W 075°28'5 9.5
2017-Sep-16 14:30N 39°43' W 075°31'0 0.0
2017-Sep-16 14:00N 39°43' W 075°31'0 0.0
2017-Sep-16 13:30N 39°43' W 075°31'0 0.0
2017-Sep-16 13:00N 39°43' W 075°31'0 0.0
2017-Sep-16 12:31N 39°43' W 075°31'0 0.0
2017-Sep-16 12:01N 39°43' W 075°31'0 0.0
2017-Sep-16 11:31N 39°43' W 075°31'0 0.0
2017-Sep-16 11:00N 39°43' W 075°31'0 0.0
2017-Sep-16 10:30N 39°43' W 075°31'0 0.0
2017-Sep-16 10:00N 39°43' W 075°31'0 0.0
2017-Sep-16 09:31N 39°43' W 075°31'0 0.0
2017-Sep-16 09:01N 39°43' W 075°31'0 0.0
2017-Sep-16 08:31N 39°43' W 075°31'0 0.0
2017-Sep-16 08:01N 39°43' W 075°31'0 0.0
2017-Sep-16 07:31N 39°43' W 075°31'0 0.0
2017-Sep-16 07:00N 39°43' W 075°31'0 0.0
2017-Sep-16 06:31N 39°43' W 075°31'0 0.0
2017-Sep-16 06:01N 39°43' W 075°31'0 0.0
2017-Sep-16 05:31N 39°43' W 075°31'0 0.0
2017-Sep-16 05:01N 39°43' W 075°31'0 0.0
2017-Sep-16 04:31N 39°43' W 075°31'0 0.0
2017-Sep-16 04:00N 39°43' W 075°31'0 0.0
2017-Sep-16 03:30N 39°43' W 075°31'0 0.0
2017-Sep-16 03:00N 39°43' W 075°31'0 0.0
2017-Sep-16 02:30N 39°43' W 075°31'0 0.0
2017-Sep-16 02:00N 39°43' W 075°31'0 0.0
2017-Sep-16 01:30N 39°43' W 075°31'0 0.0
2017-Sep-16 01:00N 39°43' W 075°31'0 0.0
2017-Sep-16 00:30N 39°43' W 075°31'0 0.0
2017-Sep-16 00:00N 39°43' W 075°31'0 0.0
2017-Sep-15 23:30N 39°43' W 075°31'0 0.0
2017-Sep-15 23:00N 39°43' W 075°31'0 0.0
2017-Sep-15 22:31N 39°43' W 075°31'0 0.0
2017-Sep-15 22:00N 39°43' W 075°31'0 0.0
2017-Sep-15 21:30N 39°43' W 075°31'0 0.0
2017-Sep-15 21:00N 39°43' W 075°31'0 0.0
2017-Sep-15 20:30N 39°43' W 075°31'0 0.0
2017-Sep-15 20:00N 39°43' W 075°31'0 0.0
2017-Sep-15 19:30N 39°43' W 075°31'0 0.0
2017-Sep-15 19:00N 39°43' W 075°31'0 0.0
2017-Sep-15 18:30N 39°43' W 075°31'0 0.0
2017-Sep-15 18:00N 39°43' W 075°31'1 1.1
2017-Sep-15 17:30N 39°43' W 075°30'611.8
2017-Sep-15 17:00N 39°48' W 075°26'0 0.0
2017-Sep-15 16:30N 39°48' W 075°26'0 0.0
2017-Sep-15 16:00N 39°48' W 075°26'0 0.0
2017-Sep-15 15:30N 39°48' W 075°26'0 0.0
2017-Sep-15 15:00N 39°48' W 075°26'1 2.5
2017-Sep-15 14:30N 39°49' W 075°24'5 9.3
2017-Sep-15 14:00N 39°51' W 075°19'4 7.5
2017-Sep-15 13:30N 39°51' W 075°14'1 2.5
2017-Sep-15 13:00N 39°52' W 075°13'0 0.0
2017-Sep-15 12:30N 39°52' W 075°13'0 0.0
2017-Sep-15 12:00N 39°52' W 075°13'1 1.8
2017-Sep-15 11:30N 39°52' W 075°14'0 0.2
2017-Sep-15 11:01N 39°52' W 075°14'3 5.3
2017-Sep-15 10:30N 39°53' W 075°11'0 0.0
2017-Sep-15 10:00N 39°53' W 075°11'0 0.0
2017-Sep-15 09:30N 39°53' W 075°11'0 0.0
2017-Sep-15 09:00N 39°53' W 075°11'0 0.0
2017-Sep-15 08:30N 39°53' W 075°11'0 0.0
2017-Sep-15 08:01N 39°53' W 075°11'0 0.0
2017-Sep-15 07:31N 39°53' W 075°11'0 0.0
2017-Sep-15 07:00N 39°53' W 075°11'0 0.0
2017-Sep-15 06:30N 39°53' W 075°11'0 0.0
2017-Sep-15 06:01N 39°53' W 075°11'0 0.0
2017-Sep-15 05:30N 39°53' W 075°11'0 0.0
2017-Sep-15 05:00N 39°53' W 075°11'0 0.0
2017-Sep-15 04:30N 39°53' W 075°11'0 0.0
2017-Sep-15 04:00N 39°53' W 075°11'0 0.0
2017-Sep-15 03:30N 39°53' W 075°11'0 0.0
2017-Sep-15 03:00N 39°53' W 075°11'0 0.0
2017-Sep-15 02:30N 39°53' W 075°11'0 0.0
2017-Sep-15 02:00N 39°53' W 075°11'0 0.0
2017-Sep-15 01:30N 39°53' W 075°11'0 0.0
2017-Sep-15 01:00N 39°53' W 075°11'0 0.0
2017-Sep-15 00:30N 39°53' W 075°11'0 0.0
2017-Sep-15 00:00N 39°53' W 075°11'0 0.0
2017-Sep-14 23:30N 39°53' W 075°11'0 0.0
2017-Sep-14 23:00N 39°53' W 075°11'0 0.0
2017-Sep-14 22:30N 39°53' W 075°11'0 0.0
2017-Sep-14 22:00N 39°53' W 075°11'0 0.0
2017-Sep-14 21:30N 39°53' W 075°11'0 0.0
2017-Sep-14 21:00N 39°53' W 075°11'0 0.0
2017-Sep-14 20:30N 39°53' W 075°11'0 0.0
2017-Sep-14 20:00N 39°53' W 075°11'1 1.0
2017-Sep-14 19:31N 39°53' W 075°12'0 0.1
2017-Sep-14 19:00N 39°53' W 075°12'3 6.1
2017-Sep-14 18:30N 39°51' W 075°15'4 8.4
2017-Sep-14 18:01N 39°51' W 075°20'5 9.2
2017-Sep-14 17:30N 39°48' W 075°25'4 7.3
2017-Sep-14 17:00N 39°46' W 075°29'3 6.9
2017-Sep-14 16:30N 39°43' W 075°31'0 0.0
2017-Sep-14 16:00N 39°43' W 075°31'0 0.0
2017-Sep-14 15:30N 39°43' W 075°31'0 0.0
2017-Sep-14 15:00N 39°43' W 075°31'0 0.0
2017-Sep-14 14:30N 39°43' W 075°31'0 0.0
2017-Sep-14 14:01N 39°43' W 075°31'0 0.0
2017-Sep-14 13:31N 39°43' W 075°31'0 0.0
2017-Sep-14 13:01N 39°43' W 075°31'0 0.0
2017-Sep-14 12:31N 39°43' W 075°31'0 0.0
2017-Sep-14 12:01N 39°43' W 075°31'0 0.0
2017-Sep-14 11:30N 39°43' W 075°31'0 0.0
2017-Sep-14 11:00N 39°43' W 075°31'0 0.0
2017-Sep-14 10:31N 39°43' W 075°31'0 0.0
2017-Sep-14 10:01N 39°43' W 075°31'0 0.0
2017-Sep-14 09:31N 39°43' W 075°31'0 0.0
2017-Sep-14 09:01N 39°43' W 075°31'0 0.0
2017-Sep-14 08:31N 39°43' W 075°31'0 0.3
2017-Sep-14 08:00N 39°43' W 075°31'0 0.3
2017-Sep-14 07:31N 39°43' W 075°31'0 0.0
2017-Sep-14 07:00N 39°43' W 075°31'0 0.0
2017-Sep-14 06:31N 39°43' W 075°31'0 0.0
2017-Sep-14 06:00N 39°43' W 075°31'0 0.0
2017-Sep-14 05:31N 39°43' W 075°31'0 0.0
2017-Sep-14 05:01N 39°43' W 075°31'0 0.0
2017-Sep-14 04:31N 39°43' W 075°31'0 0.0
2017-Sep-14 04:01N 39°43' W 075°31'0 0.0
2017-Sep-14 03:31N 39°43' W 075°31'0 0.0
2017-Sep-14 03:00N 39°43' W 075°31'0 0.0
2017-Sep-14 02:31N 39°43' W 075°31'0 0.3
2017-Sep-14 02:00N 39°43' W 075°31'4 8.5
2017-Sep-14 01:31N 39°39' W 075°33'4 8.5
2017-Sep-14 01:00N 39°35' W 075°36'0 0.6
2017-Sep-14 00:30N 39°35' W 075°35'0 0.1
2017-Sep-14 00:00N 39°35' W 075°35'2 3.2
2017-Sep-13 23:30N 39°34' W 075°34'0 0.8
2017-Sep-13 23:01N 39°34' W 075°33'2 4.1
2017-Sep-13 22:31N 39°35' W 075°36'0 0.0
2017-Sep-13 22:00N 39°35' W 075°36'0 0.0
2017-Sep-13 21:30N 39°35' W 075°36'0 0.2
2017-Sep-13 21:01N 39°35' W 075°36'0 0.7
2017-Sep-13 20:30N 39°35' W 075°35'4 7.6
2017-Sep-13 20:00N 39°39' W 075°34'4 8.6
2017-Sep-13 19:30N 39°42' W 075°31'1 1.7
2017-Sep-13 19:00N 39°43' W 075°31'0 0.0
2017-Sep-13 18:30N 39°43' W 075°31'0 0.0
2017-Sep-13 18:00N 39°43' W 075°31'0 0.2
2017-Sep-13 17:30N 39°43' W 075°31'0 0.2
2017-Sep-13 17:01N 39°43' W 075°31'0 0.1
2017-Sep-13 16:30N 39°43' W 075°31'0 0.6
2017-Sep-13 16:00N 39°43' W 075°31'0 0.0
2017-Sep-13 15:30N 39°43' W 075°31'0 0.0
2017-Sep-13 15:00N 39°43' W 075°31'0 0.0
2017-Sep-13 14:30N 39°43' W 075°31'2 3.5
2017-Sep-13 14:01N 39°41' W 075°31'4 8.6
2017-Sep-13 13:30N 39°38' W 075°35'3 6.7
2017-Sep-13 13:01N 39°35' W 075°35'0 0.0
2017-Sep-13 12:30N 39°35' W 075°35'0 0.0
2017-Sep-13 12:00N 39°35' W 075°35'0 0.0
2017-Sep-13 11:30N 39°35' W 075°35'1 2.6
2017-Sep-13 11:00N 39°34' W 075°34'2 4.4
2017-Sep-13 10:31N 39°32' W 075°33'3 6.4
2017-Sep-13 10:01N 39°35' W 075°35'0 0.4
2017-Sep-13 09:30N 39°35' W 075°35'0 0.0
2017-Sep-13 09:00N 39°35' W 075°35'0 0.0
2017-Sep-13 08:30N 39°35' W 075°35'0 0.0
2017-Sep-13 08:00N 39°35' W 075°35'0 0.0
2017-Sep-13 07:30N 39°35' W 075°35'0 0.1
2017-Sep-13 07:00N 39°35' W 075°35'0 0.1
2017-Sep-13 06:30N 39°35' W 075°35'0 0.0
2017-Sep-13 06:00N 39°35' W 075°35'0 0.7
2017-Sep-13 05:30N 39°35' W 075°36'4 7.4
2017-Sep-13 05:00N 39°39' W 075°34'5 9.3
2017-Sep-13 04:30N 39°43' W 075°31'0 0.7
2017-Sep-13 04:00N 39°43' W 075°31'0 0.5
2017-Sep-13 03:30N 39°43' W 075°31'0 0.0
2017-Sep-13 03:01N 39°43' W 075°31'0 0.0
2017-Sep-13 02:30N 39°43' W 075°31'0 0.0
2017-Sep-13 02:00N 39°43' W 075°31'0 0.0
2017-Sep-13 01:30N 39°43' W 075°31'0 0.0
2017-Sep-13 01:00N 39°43' W 075°31'0 0.0
2017-Sep-13 00:30N 39°43' W 075°31'0 0.0
2017-Sep-13 00:00N 39°43' W 075°31'4 8.2
2017-Sep-12 23:30N 39°46' W 075°28'3 5.9
2017-Sep-12 23:00N 39°48' W 075°25'0 0.0
2017-Sep-12 22:30N 39°48' W 075°25'0 0.4
2017-Sep-12 22:00N 39°48' W 075°25'0 0.0
2017-Sep-12 21:30N 39°48' W 075°25'0 0.0
2017-Sep-12 21:01N 39°48' W 075°25'0 0.0
2017-Sep-12 20:31N 39°48' W 075°25'0 0.0
2017-Sep-12 20:01N 39°48' W 075°25'0 0.0
2017-Sep-12 19:30N 39°48' W 075°25'1 2.1
2017-Sep-12 19:01N 39°49' W 075°24'4 7.5
2017-Sep-12 18:31N 39°51' W 075°20'3 5.1
2017-Sep-12 18:01N 39°51' W 075°16'0 0.0
2017-Sep-12 17:30N 39°51' W 075°16'1 1.4
2017-Sep-12 17:01N 39°51' W 075°15'2 3.5
2017-Sep-12 16:30N 39°52' W 075°13'2 5.0
2017-Sep-12 16:00N 39°51' W 075°16'0 0.4
2017-Sep-12 15:30N 39°51' W 075°16'0 0.2
2017-Sep-12 15:00N 39°51' W 075°16'0 0.7
2017-Sep-12 14:30N 39°51' W 075°16'0 0.0
2017-Sep-12 14:00N 39°51' W 075°16'0 0.0
2017-Sep-12 13:30N 39°51' W 075°16'0 0.0
2017-Sep-12 13:00N 39°51' W 075°16'0 0.0
2017-Sep-12 12:30N 39°51' W 075°16'14 4.3
2017-Sep-12 09:15N 39°43' W 075°31'0 0.1
2017-Sep-12 09:00N 39°43' W 075°31'0 0.0
2017-Sep-12 08:30N 39°43' W 075°31'0 0.0
2017-Sep-12 08:00N 39°43' W 075°31'0 0.0
2017-Sep-12 07:30N 39°43' W 075°31'0 0.0
2017-Sep-12 07:00N 39°43' W 075°31'0 0.0
2017-Sep-12 06:30N 39°43' W 075°31'0 0.0
2017-Sep-12 06:00N 39°43' W 075°31'0 0.0
2017-Sep-12 05:30N 39°43' W 075°31'1 1.1
2017-Sep-12 05:00N 39°42' W 075°31'1 1.7
2017-Sep-12 04:30N 39°43' W 075°31'0 0.2
2017-Sep-12 04:00N 39°43' W 075°31'0 0.4
2017-Sep-12 03:31N 39°43' W 075°31'0 0.0
2017-Sep-12 03:01N 39°43' W 075°31'0 0.0
2017-Sep-12 02:30N 39°43' W 075°31'0 0.0
2017-Sep-12 02:01N 39°43' W 075°31'0 0.0
2017-Sep-12 01:31N 39°43' W 075°31'0 0.0
2017-Sep-12 01:01N 39°43' W 075°31'0 0.0
2017-Sep-12 00:31N 39°43' W 075°31'0 0.0
2017-Sep-12 00:00N 39°43' W 075°31'0 0.0
2017-Sep-11 23:30N 39°43' W 075°31'0 0.0
2017-Sep-11 23:01N 39°43' W 075°31'0 0.0
2017-Sep-11 22:31N 39°43' W 075°31'0 0.0
2017-Sep-11 22:00N 39°43' W 075°31'0 0.0
2017-Sep-11 21:30N 39°43' W 075°31'4 8.8
2017-Sep-11 21:00N 39°47' W 075°28'3 5.5
2017-Sep-11 20:30N 39°48' W 075°25'0 0.0
2017-Sep-11 20:00N 39°48' W 075°25'0 0.0
2017-Sep-11 19:31N 39°48' W 075°25'0 0.6
2017-Sep-11 19:01N 39°48' W 075°25'3 6.7
2017-Sep-11 18:30N 39°46' W 075°29'3 6.9
2017-Sep-11 18:01N 39°43' W 075°31'0 0.0
2017-Sep-11 17:30N 39°43' W 075°31'0 0.0
2017-Sep-11 17:01N 39°43' W 075°31'0 0.0
2017-Sep-11 16:31N 39°43' W 075°31'0 0.0
2017-Sep-11 16:00N 39°43' W 075°31'0 0.0
2017-Sep-11 15:31N 39°43' W 075°31'0 0.0
2017-Sep-11 15:00N 39°43' W 075°31'0 0.0
2017-Sep-11 14:30N 39°43' W 075°31'0 0.0
2017-Sep-11 14:01N 39°43' W 075°31'0 0.0
2017-Sep-11 13:31N 39°43' W 075°31'0 0.0
2017-Sep-11 13:01N 39°43' W 075°31'0 0.0
2017-Sep-11 12:31N 39°43' W 075°31'0 0.0
2017-Sep-11 12:00N 39°43' W 075°31'0 0.0
2017-Sep-11 11:31N 39°43' W 075°31'0 0.0
2017-Sep-11 11:01N 39°43' W 075°31'0 0.1
2017-Sep-11 10:31N 39°43' W 075°31'4 8.7
2017-Sep-11 10:01N 39°39' W 075°33'5 9.1
2017-Sep-11 09:31N 39°34' W 075°33'0 0.9
2017-Sep-11 09:00N 39°34' W 075°33'2 3.9
2017-Sep-11 08:31N 39°35' W 075°35'0 0.0
2017-Sep-11 08:01N 39°35' W 075°35'0 0.0
2017-Sep-11 07:31N 39°35' W 075°35'0 0.0
2017-Sep-11 07:00N 39°35' W 075°35'0 0.0
2017-Sep-11 06:30N 39°35' W 075°35'0 0.0
2017-Sep-11 06:01N 39°35' W 075°35'0 0.0
2017-Sep-11 05:30N 39°35' W 075°35'0 0.0
2017-Sep-11 05:00N 39°35' W 075°35'0 0.0
2017-Sep-11 04:30N 39°35' W 075°35'0 0.0
2017-Sep-11 04:01N 39°35' W 075°35'0 0.0
2017-Sep-11 03:30N 39°35' W 075°35'0 0.0
2017-Sep-11 03:01N 39°35' W 075°35'0 0.0
2017-Sep-11 02:30N 39°35' W 075°35'0 0.0
2017-Sep-11 02:00N 39°35' W 075°35'0 0.0
2017-Sep-11 01:31N 39°35' W 075°35'0 0.0
2017-Sep-11 01:01N 39°35' W 075°35'0 0.0
2017-Sep-11 00:30N 39°35' W 075°35'0 0.0
2017-Sep-11 00:00N 39°35' W 075°35'0 0.0
2017-Sep-10 23:30N 39°35' W 075°35'0 0.0
2017-Sep-10 23:00N 39°35' W 075°35'0 0.0
2017-Sep-10 22:31N 39°35' W 075°35'0 0.0
2017-Sep-10 22:00N 39°35' W 075°35'0 0.0
2017-Sep-10 21:30N 39°35' W 075°35'0 0.3
2017-Sep-10 21:00N 39°35' W 075°35'0 0.1
2017-Sep-10 20:30N 39°35' W 075°35'2 4.5
2017-Sep-10 20:00N 39°33' W 075°33'2 4.6
2017-Sep-10 19:31N 39°35' W 075°35'0 0.0
2017-Sep-10 19:00N 39°35' W 075°35'0 0.0
2017-Sep-10 18:30N 39°35' W 075°35'0 0.0
2017-Sep-10 18:00N 39°35' W 075°35'0 0.0
2017-Sep-10 17:30N 39°35' W 075°35'0 0.0
2017-Sep-10 17:00N 39°35' W 075°35'0 0.0
2017-Sep-10 16:30N 39°35' W 075°35'0 0.0
2017-Sep-10 16:00N 39°35' W 075°35'0 0.0
2017-Sep-10 15:30N 39°35' W 075°35'0 0.0
2017-Sep-10 15:00N 39°35' W 075°35'2 1.9
2017-Sep-10 14:00N 39°37' W 075°35'612.1
2017-Sep-10 13:30N 39°42' W 075°31'611.5
2017-Sep-10 13:00N 39°47' W 075°27'2 4.5
2017-Sep-10 12:30N 39°48' W 075°25'0 0.3
2017-Sep-10 12:00N 39°48' W 075°25'0 0.0
2017-Sep-10 11:30N 39°48' W 075°25'0 0.1
2017-Sep-10 11:00N 39°48' W 075°25'1 2.4
2017-Sep-10 10:30N 39°48' W 075°26'1 1.3
2017-Sep-10 10:00N 39°48' W 075°26'0 0.0
2017-Sep-10 09:30N 39°48' W 075°26'0 0.0
2017-Sep-10 09:00N 39°48' W 075°26'0 0.2
2017-Sep-10 08:30N 39°48' W 075°26'510.9
2017-Sep-10 08:00N 39°44' W 075°30'1 1.8
2017-Sep-10 07:30N 39°43' W 075°31'1 1.3
2017-Sep-10 07:00N 39°43' W 075°30'1 1.5
2017-Sep-10 06:30N 39°43' W 075°31'0 0.0
2017-Sep-10 06:00N 39°43' W 075°31'0 0.0
2017-Sep-10 05:30N 39°43' W 075°31'0 0.0
2017-Sep-10 05:00N 39°43' W 075°31'0 0.0
2017-Sep-10 04:30N 39°43' W 075°31'0 0.0
2017-Sep-10 04:00N 39°43' W 075°31'0 0.0
2017-Sep-10 03:30N 39°43' W 075°31'0 0.0
2017-Sep-10 03:00N 39°43' W 075°31'0 0.0
2017-Sep-10 02:30N 39°43' W 075°31'0 0.0
2017-Sep-10 02:00N 39°43' W 075°31'1 1.5
2017-Sep-10 01:30N 39°42' W 075°31'0 0.7
2017-Sep-10 01:00N 39°43' W 075°31'0 1.0
2017-Sep-10 00:30N 39°43' W 075°31'0 0.0
2017-Sep-10 00:00N 39°43' W 075°31'0 0.0
2017-Sep-09 23:30N 39°43' W 075°31'0 0.0
2017-Sep-09 23:00N 39°43' W 075°31'0 0.0
2017-Sep-09 22:30N 39°43' W 075°31'0 0.0
2017-Sep-09 22:00N 39°43' W 075°31'  
Track history (hours):
 
Tides and Currents Weather Stations Pressure Air Temp Water Temp Dewpoint Dewpoint Depression Visibility Wind Speed Wind Dir Waves Ship Positions

Sally

Owner: Wilmington Tug, Inc., New Castle, DE. More information available from US FCC via Universal Licensing System and Coast Guard Vessel Documentation Center.

Last reported at 2017-Sep-19 22:00 UTC. Time now 2017-Sep-19 22:25 UTC.
Position N 39°43' W 075°31'.

Length 24 m; draft 4 m.

Type: Tug. MMSI: 367012660.

Date/timePositionNaut miles runAvg speedWind from/ knotsBaromVisibWave heightAir tempDewpointWater temp
2017-Sep-19 22:00N 39°43' W 075°31'0 0.0
2017-Sep-19 21:30N 39°43' W 075°31'0 0.0
2017-Sep-19 21:00N 39°43' W 075°31'0 0.0
2017-Sep-19 20:30N 39°43' W 075°31'0 0.0
2017-Sep-19 20:00N 39°43' W 075°31'0 0.0
2017-Sep-19 19:30N 39°43' W 075°31'0 0.0
2017-Sep-19 19:00N 39°43' W 075°31'0 0.0
2017-Sep-19 18:31N 39°43' W 075°31'0 0.0
2017-Sep-19 18:00N 39°43' W 075°31'0 0.0
2017-Sep-19 17:31N 39°43' W 075°31'0 0.0
2017-Sep-19 17:00N 39°43' W 075°31'0 0.0
2017-Sep-19 16:31N 39°43' W 075°31'0 0.0
2017-Sep-19 16:00N 39°43' W 075°31'0 0.0
2017-Sep-19 15:30N 39°43' W 075°31'0 0.0
2017-Sep-19 15:00N 39°43' W 075°31'0 0.0
2017-Sep-19 14:30N 39°43' W 075°31'0 0.0
2017-Sep-19 14:00N 39°43' W 075°31'0 0.0
2017-Sep-19 13:30N 39°43' W 075°31'0 0.0
2017-Sep-19 13:00N 39°43' W 075°31'0 0.0
2017-Sep-19 12:30N 39°43' W 075°31'0 0.0
2017-Sep-19 12:00N 39°43' W 075°31'0 0.0
2017-Sep-19 11:30N 39°43' W 075°31'0 0.0
2017-Sep-19 11:00N 39°43' W 075°31'0 0.0
2017-Sep-19 10:30N 39°43' W 075°31'0 0.0
2017-Sep-19 10:00N 39°43' W 075°31'0 0.0
2017-Sep-19 09:30N 39°43' W 075°31'0 0.0
2017-Sep-19 09:01N 39°43' W 075°31'0 0.0
2017-Sep-19 08:31N 39°43' W 075°31'0 0.0
2017-Sep-19 08:00N 39°43' W 075°31'0 0.0
2017-Sep-19 07:31N 39°43' W 075°31'0 0.0
2017-Sep-19 07:00N 39°43' W 075°31'0 0.0
2017-Sep-19 06:30N 39°43' W 075°31'0 0.0
2017-Sep-19 06:00N 39°43' W 075°31'0 0.0
2017-Sep-19 05:30N 39°43' W 075°31'0 0.5
2017-Sep-19 05:01N 39°43' W 075°31'0 0.2
2017-Sep-19 04:31N 39°43' W 075°31'0 0.4
2017-Sep-19 04:01N 39°43' W 075°31'0 0.7
2017-Sep-19 03:31N 39°43' W 075°31'0 0.0
2017-Sep-19 03:01N 39°43' W 075°31'0 0.0
2017-Sep-19 02:30N 39°43' W 075°31'0 0.0
2017-Sep-19 02:00N 39°43' W 075°31'0 0.0
2017-Sep-19 01:30N 39°43' W 075°31'0 0.0
2017-Sep-19 01:00N 39°43' W 075°31'0 0.0
2017-Sep-19 00:30N 39°43' W 075°31'0 0.0
2017-Sep-19 00:00N 39°43' W 075°31'0 0.0
2017-Sep-18 23:30N 39°43' W 075°31'2 3.9
2017-Sep-18 23:01N 39°45' W 075°30'510.6
2017-Sep-18 22:30N 39°48' W 075°25'612.0
2017-Sep-18 22:01N 39°51' W 075°18'611.7
2017-Sep-18 21:30N 39°53' W 075°10'4 8.8
2017-Sep-18 21:00N 39°57' W 075°08'510.4
2017-Sep-18 20:30N 40°00' W 075°03'510.9
2017-Sep-18 20:00N 40°04' W 074°57'5 9.9
2017-Sep-18 19:30N 40°06' W 074°51'4 6.7
2017-Sep-18 18:58N 40°07' W 074°47'2 3.7
2017-Sep-18 18:28N 40°08' W 074°45'0 0.2
2017-Sep-18 17:57N 40°08' W 074°45'4 8.4
2017-Sep-18 17:30N 40°07' W 074°50'4 8.4
2017-Sep-18 17:00N 40°04' W 074°54'5 9.5
2017-Sep-18 16:30N 40°02' W 074°60'611.1
2017-Sep-18 16:01N 39°59' W 075°05'4 8.1
2017-Sep-18 15:30N 39°55' W 075°08'5 9.4
2017-Sep-18 15:00N 39°52' W 075°13'4 9.0
2017-Sep-18 14:30N 39°51' W 075°18'612.3
2017-Sep-18 14:00N 39°48' W 075°25'611.4
2017-Sep-18 13:30N 39°44' W 075°30'1 1.9
2017-Sep-18 13:00N 39°43' W 075°31'0 0.0
2017-Sep-18 12:31N 39°43' W 075°31'0 0.0
2017-Sep-18 12:01N 39°43' W 075°31'0 0.0
2017-Sep-18 11:31N 39°43' W 075°31'0 0.0
2017-Sep-18 11:01N 39°43' W 075°31'0 0.5
2017-Sep-18 10:31N 39°43' W 075°31'0 0.6
2017-Sep-18 10:00N 39°43' W 075°31'1 2.1
2017-Sep-18 09:31N 39°42' W 075°31'1 2.1
2017-Sep-18 09:01N 39°43' W 075°31'0 0.0
2017-Sep-18 08:31N 39°43' W 075°31'0 0.0
2017-Sep-18 08:01N 39°43' W 075°31'0 0.0
2017-Sep-18 07:30N 39°43' W 075°31'0 0.0
2017-Sep-18 07:01N 39°43' W 075°31'0 0.0
2017-Sep-18 06:30N 39°43' W 075°31'0 0.0
2017-Sep-18 06:01N 39°43' W 075°31'0 0.0
2017-Sep-18 05:31N 39°43' W 075°31'0 0.0
2017-Sep-18 05:00N 39°43' W 075°31'0 0.0
2017-Sep-18 04:30N 39°43' W 075°31'0 0.0
2017-Sep-18 04:00N 39°43' W 075°31'5 9.3
2017-Sep-18 03:31N 39°39' W 075°34'4 8.1
2017-Sep-18 03:01N 39°35' W 075°36'0 0.0
2017-Sep-18 02:31N 39°35' W 075°36'0 0.3
2017-Sep-18 02:01N 39°35' W 075°35'1 2.7
2017-Sep-18 01:31N 39°34' W 075°34'1 2.7
2017-Sep-18 01:01N 39°35' W 075°35'0 0.3
2017-Sep-18 00:30N 39°35' W 075°36'0 0.1
2017-Sep-18 00:01N 39°35' W 075°36'0 0.4
2017-Sep-17 23:31N 39°35' W 075°35'0 0.2
2017-Sep-17 23:00N 39°35' W 075°35'3 5.2
2017-Sep-17 22:30N 39°38' W 075°36'510.4
2017-Sep-17 22:00N 39°42' W 075°31'3 5.1
2017-Sep-17 21:30N 39°44' W 075°30'510.3
2017-Sep-17 21:00N 39°48' W 075°26'0 0.0
2017-Sep-17 20:30N 39°48' W 075°26'0 0.0
2017-Sep-17 20:00N 39°48' W 075°26'0 0.0
2017-Sep-17 19:30N 39°48' W 075°26'0 0.0
2017-Sep-17 19:00N 39°48' W 075°26'510.7
2017-Sep-17 18:30N 39°51' W 075°20'3 5.8
2017-Sep-17 18:00N 39°51' W 075°16'0 0.0
2017-Sep-17 17:30N 39°51' W 075°16'1 1.3
2017-Sep-17 17:00N 39°51' W 075°17'1 2.5
2017-Sep-17 16:31N 39°51' W 075°19'2 4.6
2017-Sep-17 16:00N 39°51' W 075°16'0 0.0
2017-Sep-17 15:30N 39°51' W 075°16'0 0.0
2017-Sep-17 15:01N 39°51' W 075°16'0 0.0
2017-Sep-17 14:31N 39°51' W 075°16'0 0.8
2017-Sep-17 14:00N 39°51' W 075°16'0 0.0
2017-Sep-17 13:30N 39°51' W 075°16'4 8.1
2017-Sep-17 13:00N 39°50' W 075°21'611.3
2017-Sep-17 12:30N 39°47' W 075°28'5 9.6
2017-Sep-17 12:01N 39°43' W 075°31'0 0.0
2017-Sep-17 11:30N 39°43' W 075°31'0 0.0
2017-Sep-17 11:00N 39°43' W 075°31'0 0.0
2017-Sep-17 10:30N 39°43' W 075°31'0 0.0
2017-Sep-17 10:00N 39°43' W 075°31'0 0.0
2017-Sep-17 09:31N 39°43' W 075°31'0 0.0
2017-Sep-17 09:01N 39°43' W 075°31'0 0.0
2017-Sep-17 08:30N 39°43' W 075°31'0 0.0
2017-Sep-17 08:00N 39°43' W 075°31'0 0.0
2017-Sep-17 07:30N 39°43' W 075°31'0 0.0
2017-Sep-17 07:00N 39°43' W 075°31'0 0.0
2017-Sep-17 06:31N 39°43' W 075°31'0 0.0
2017-Sep-17 06:01N 39°43' W 075°31'0 0.0
2017-Sep-17 05:31N 39°43' W 075°31'0 0.0
2017-Sep-17 05:01N 39°43' W 075°31'0 0.0
2017-Sep-17 04:31N 39°43' W 075°31'0 0.0
2017-Sep-17 04:00N 39°43' W 075°31'0 0.0
2017-Sep-17 03:31N 39°43' W 075°31'0 0.0
2017-Sep-17 03:01N 39°43' W 075°31'0 0.0
2017-Sep-17 02:31N 39°43' W 075°31'0 0.0
2017-Sep-17 02:00N 39°43' W 075°31'0 0.0
2017-Sep-17 01:31N 39°43' W 075°31'0 0.0
2017-Sep-17 01:01N 39°43' W 075°31'0 0.0
2017-Sep-17 00:30N 39°43' W 075°31'0 0.0
2017-Sep-17 00:00N 39°43' W 075°31'0 0.0
2017-Sep-16 23:31N 39°43' W 075°31'0 0.6
2017-Sep-16 23:00N 39°43' W 075°31'5 9.3
2017-Sep-16 22:30N 39°47' W 075°28'3 5.9
2017-Sep-16 22:00N 39°49' W 075°24'1 2.9
2017-Sep-16 21:30N 39°49' W 075°23'2 4.6
2017-Sep-16 21:00N 39°51' W 075°21'0 0.0
2017-Sep-16 20:30N 39°51' W 075°21'0 0.0
2017-Sep-16 20:00N 39°51' W 075°21'0 0.0
2017-Sep-16 19:30N 39°51' W 075°21'0 0.0
2017-Sep-16 19:00N 39°51' W 075°21'0 0.0
2017-Sep-16 18:30N 39°51' W 075°21'2 3.1
2017-Sep-16 18:00N 39°51' W 075°18'4 7.5
2017-Sep-16 17:30N 39°52' W 075°14'0 0.1
2017-Sep-16 17:00N 39°52' W 075°14'1 1.0
2017-Sep-16 16:30N 39°51' W 075°14'3 6.0
2017-Sep-16 16:00N 39°51' W 075°18'4 8.6
2017-Sep-16 15:30N 39°49' W 075°23'4 8.0
2017-Sep-16 15:00N 39°47' W 075°28'5 9.5
2017-Sep-16 14:30N 39°43' W 075°31'0 0.0
2017-Sep-16 14:00N 39°43' W 075°31'0 0.0
2017-Sep-16 13:30N 39°43' W 075°31'0 0.0
2017-Sep-16 13:00N 39°43' W 075°31'0 0.0
2017-Sep-16 12:31N 39°43' W 075°31'0 0.0
2017-Sep-16 12:01N 39°43' W 075°31'0 0.0
2017-Sep-16 11:31N 39°43' W 075°31'0 0.0
2017-Sep-16 11:00N 39°43' W 075°31'0 0.0
2017-Sep-16 10:30N 39°43' W 075°31'0 0.0
2017-Sep-16 10:00N 39°43' W 075°31'0 0.0
2017-Sep-16 09:31N 39°43' W 075°31'0 0.0
2017-Sep-16 09:01N 39°43' W 075°31'0 0.0
2017-Sep-16 08:31N 39°43' W 075°31'0 0.0
2017-Sep-16 08:01N 39°43' W 075°31'0 0.0
2017-Sep-16 07:31N 39°43' W 075°31'0 0.0
2017-Sep-16 07:00N 39°43' W 075°31'0 0.0
2017-Sep-16 06:31N 39°43' W 075°31'0 0.0
2017-Sep-16 06:01N 39°43' W 075°31'0 0.0
2017-Sep-16 05:31N 39°43' W 075°31'0 0.0
2017-Sep-16 05:01N 39°43' W 075°31'0 0.0
2017-Sep-16 04:31N 39°43' W 075°31'0 0.0
2017-Sep-16 04:00N 39°43' W 075°31'0 0.0
2017-Sep-16 03:30N 39°43' W 075°31'0 0.0
2017-Sep-16 03:00N 39°43' W 075°31'0 0.0
2017-Sep-16 02:30N 39°43' W 075°31'0 0.0
2017-Sep-16 02:00N 39°43' W 075°31'0 0.0
2017-Sep-16 01:30N 39°43' W 075°31'0 0.0
2017-Sep-16 01:00N 39°43' W 075°31'0 0.0
2017-Sep-16 00:30N 39°43' W 075°31'0 0.0
2017-Sep-16 00:00N 39°43' W 075°31'0 0.0
2017-Sep-15 23:30N 39°43' W 075°31'0 0.0
2017-Sep-15 23:00N 39°43' W 075°31'0 0.0
2017-Sep-15 22:31N 39°43' W 075°31'0 0.0
2017-Sep-15 22:00N 39°43' W 075°31'0 0.0
2017-Sep-15 21:30N 39°43' W 075°31'0 0.0
2017-Sep-15 21:00N 39°43' W 075°31'0 0.0
2017-Sep-15 20:30N 39°43' W 075°31'0 0.0
2017-Sep-15 20:00N 39°43' W 075°31'0 0.0
2017-Sep-15 19:30N 39°43' W 075°31'0 0.0
2017-Sep-15 19:00N 39°43' W 075°31'0 0.0
2017-Sep-15 18:30N 39°43' W 075°31'0 0.0
2017-Sep-15 18:00N 39°43' W 075°31'1 1.1
2017-Sep-15 17:30N 39°43' W 075°30'611.8
2017-Sep-15 17:00N 39°48' W 075°26'0 0.0
2017-Sep-15 16:30N 39°48' W 075°26'0 0.0
2017-Sep-15 16:00N 39°48' W 075°26'0 0.0
2017-Sep-15 15:30N 39°48' W 075°26'0 0.0
2017-Sep-15 15:00N 39°48' W 075°26'1 2.5
2017-Sep-15 14:30N 39°49' W 075°24'5 9.3
2017-Sep-15 14:00N 39°51' W 075°19'4 7.5
2017-Sep-15 13:30N 39°51' W 075°14'1 2.5
2017-Sep-15 13:00N 39°52' W 075°13'0 0.0
2017-Sep-15 12:30N 39°52' W 075°13'0 0.0
2017-Sep-15 12:00N 39°52' W 075°13'1 1.8
2017-Sep-15 11:30N 39°52' W 075°14'0 0.2
2017-Sep-15 11:01N 39°52' W 075°14'3 5.3
2017-Sep-15 10:30N 39°53' W 075°11'0 0.0
2017-Sep-15 10:00N 39°53' W 075°11'0 0.0
2017-Sep-15 09:30N 39°53' W 075°11'0 0.0
2017-Sep-15 09:00N 39°53' W 075°11'0 0.0
2017-Sep-15 08:30N 39°53' W 075°11'0 0.0
2017-Sep-15 08:01N 39°53' W 075°11'0 0.0
2017-Sep-15 07:31N 39°53' W 075°11'0 0.0
2017-Sep-15 07:00N 39°53' W 075°11'0 0.0
2017-Sep-15 06:30N 39°53' W 075°11'0 0.0
2017-Sep-15 06:01N 39°53' W 075°11'0 0.0
2017-Sep-15 05:30N 39°53' W 075°11'0 0.0
2017-Sep-15 05:00N 39°53' W 075°11'0 0.0
2017-Sep-15 04:30N 39°53' W 075°11'0 0.0
2017-Sep-15 04:00N 39°53' W 075°11'0 0.0
2017-Sep-15 03:30N 39°53' W 075°11'0 0.0
2017-Sep-15 03:00N 39°53' W 075°11'0 0.0
2017-Sep-15 02:30N 39°53' W 075°11'0 0.0
2017-Sep-15 02:00N 39°53' W 075°11'0 0.0
2017-Sep-15 01:30N 39°53' W 075°11'0 0.0
2017-Sep-15 01:00N 39°53' W 075°11'0 0.0
2017-Sep-15 00:30N 39°53' W 075°11'0 0.0
2017-Sep-15 00:00N 39°53' W 075°11'0 0.0
2017-Sep-14 23:30N 39°53' W 075°11'0 0.0
2017-Sep-14 23:00N 39°53' W 075°11'0 0.0
2017-Sep-14 22:30N 39°53' W 075°11'0 0.0
2017-Sep-14 22:00N 39°53' W 075°11'0 0.0
2017-Sep-14 21:30N 39°53' W 075°11'0 0.0
2017-Sep-14 21:00N 39°53' W 075°11'0 0.0
2017-Sep-14 20:30N 39°53' W 075°11'0 0.0
2017-Sep-14 20:00N 39°53' W 075°11'1 1.0
2017-Sep-14 19:31N 39°53' W 075°12'0 0.1
2017-Sep-14 19:00N 39°53' W 075°12'3 6.1
2017-Sep-14 18:30N 39°51' W 075°15'4 8.4
2017-Sep-14 18:01N 39°51' W 075°20'5 9.2
2017-Sep-14 17:30N 39°48' W 075°25'4 7.3
2017-Sep-14 17:00N 39°46' W 075°29'3 6.9
2017-Sep-14 16:30N 39°43' W 075°31'0 0.0
2017-Sep-14 16:00N 39°43' W 075°31'0 0.0
2017-Sep-14 15:30N 39°43' W 075°31'0 0.0
2017-Sep-14 15:00N 39°43' W 075°31'0 0.0
2017-Sep-14 14:30N 39°43' W 075°31'0 0.0
2017-Sep-14 14:01N 39°43' W 075°31'0 0.0
2017-Sep-14 13:31N 39°43' W 075°31'0 0.0
2017-Sep-14 13:01N 39°43' W 075°31'0 0.0
2017-Sep-14 12:31N 39°43' W 075°31'0 0.0
2017-Sep-14 12:01N 39°43' W 075°31'0 0.0
2017-Sep-14 11:30N 39°43' W 075°31'0 0.0
2017-Sep-14 11:00N 39°43' W 075°31'0 0.0
2017-Sep-14 10:31N 39°43' W 075°31'0 0.0
2017-Sep-14 10:01N 39°43' W 075°31'0 0.0
2017-Sep-14 09:31N 39°43' W 075°31'0 0.0
2017-Sep-14 09:01N 39°43' W 075°31'0 0.0
2017-Sep-14 08:31N 39°43' W 075°31'0 0.3
2017-Sep-14 08:00N 39°43' W 075°31'0 0.3
2017-Sep-14 07:31N 39°43' W 075°31'0 0.0
2017-Sep-14 07:00N 39°43' W 075°31'0 0.0
2017-Sep-14 06:31N 39°43' W 075°31'0 0.0
2017-Sep-14 06:00N 39°43' W 075°31'0 0.0
2017-Sep-14 05:31N 39°43' W 075°31'0 0.0
2017-Sep-14 05:01N 39°43' W 075°31'0 0.0
2017-Sep-14 04:31N 39°43' W 075°31'0 0.0
2017-Sep-14 04:01N 39°43' W 075°31'0 0.0
2017-Sep-14 03:31N 39°43' W 075°31'0 0.0
2017-Sep-14 03:00N 39°43' W 075°31'0 0.0
2017-Sep-14 02:31N 39°43' W 075°31'0 0.3
2017-Sep-14 02:00N 39°43' W 075°31'4 8.5
2017-Sep-14 01:31N 39°39' W 075°33'4 8.5
2017-Sep-14 01:00N 39°35' W 075°36'0 0.6
2017-Sep-14 00:30N 39°35' W 075°35'0 0.1
2017-Sep-14 00:00N 39°35' W 075°35'2 3.2
2017-Sep-13 23:30N 39°34' W 075°34'0 0.8
2017-Sep-13 23:01N 39°34' W 075°33'2 4.1
2017-Sep-13 22:31N 39°35' W 075°36'0 0.0
2017-Sep-13 22:00N 39°35' W 075°36'0 0.0
2017-Sep-13 21:30N 39°35' W 075°36'0 0.2
2017-Sep-13 21:01N 39°35' W 075°36'0 0.7
2017-Sep-13 20:30N 39°35' W 075°35'4 7.6
2017-Sep-13 20:00N 39°39' W 075°34'4 8.6
2017-Sep-13 19:30N 39°42' W 075°31'1 1.7
2017-Sep-13 19:00N 39°43' W 075°31'0 0.0
2017-Sep-13 18:30N 39°43' W 075°31'0 0.0
2017-Sep-13 18:00N 39°43' W 075°31'0 0.2
2017-Sep-13 17:30N 39°43' W 075°31'0 0.2
2017-Sep-13 17:01N 39°43' W 075°31'0 0.1
2017-Sep-13 16:30N 39°43' W 075°31'0 0.6
2017-Sep-13 16:00N 39°43' W 075°31'0 0.0
2017-Sep-13 15:30N 39°43' W 075°31'0 0.0
2017-Sep-13 15:00N 39°43' W 075°31'0 0.0
2017-Sep-13 14:30N 39°43' W 075°31'2 3.5
2017-Sep-13 14:01N 39°41' W 075°31'4 8.6
2017-Sep-13 13:30N 39°38' W 075°35'3 6.7
2017-Sep-13 13:01N 39°35' W 075°35'0 0.0
2017-Sep-13 12:30N 39°35' W 075°35'0 0.0
2017-Sep-13 12:00N 39°35' W 075°35'0 0.0
2017-Sep-13 11:30N 39°35' W 075°35'1 2.6
2017-Sep-13 11:00N 39°34' W 075°34'2 4.4
2017-Sep-13 10:31N 39°32' W 075°33'3 6.4
2017-Sep-13 10:01N 39°35' W 075°35'0 0.4
2017-Sep-13 09:30N 39°35' W 075°35'0 0.0
2017-Sep-13 09:00N 39°35' W 075°35'0 0.0
2017-Sep-13 08:30N 39°35' W 075°35'0 0.0
2017-Sep-13 08:00N 39°35' W 075°35'0 0.0
2017-Sep-13 07:30N 39°35' W 075°35'0 0.1
2017-Sep-13 07:00N 39°35' W 075°35'0 0.1
2017-Sep-13 06:30N 39°35' W 075°35'0 0.0
2017-Sep-13 06:00N 39°35' W 075°35'0 0.7
2017-Sep-13 05:30N 39°35' W 075°36'4 7.4
2017-Sep-13 05:00N 39°39' W 075°34'5 9.3
2017-Sep-13 04:30N 39°43' W 075°31'0 0.7
2017-Sep-13 04:00N 39°43' W 075°31'0 0.5
2017-Sep-13 03:30N 39°43' W 075°31'0 0.0
2017-Sep-13 03:01N 39°43' W 075°31'0 0.0
2017-Sep-13 02:30N 39°43' W 075°31'0 0.0
2017-Sep-13 02:00N 39°43' W 075°31'0 0.0
2017-Sep-13 01:30N 39°43' W 075°31'0 0.0
2017-Sep-13 01:00N 39°43' W 075°31'0 0.0
2017-Sep-13 00:30N 39°43' W 075°31'0 0.0
2017-Sep-13 00:00N 39°43' W 075°31'4 8.2
2017-Sep-12 23:30N 39°46' W 075°28'3 5.9
2017-Sep-12 23:00N 39°48' W 075°25'0 0.0
2017-Sep-12 22:30N 39°48' W 075°25'0 0.4
2017-Sep-12 22:00N 39°48' W 075°25'0 0.0
2017-Sep-12 21:30N 39°48' W 075°25'0 0.0
2017-Sep-12 21:01N 39°48' W 075°25'0 0.0
2017-Sep-12 20:31N 39°48' W 075°25'0 0.0
2017-Sep-12 20:01N 39°48' W 075°25'0 0.0
2017-Sep-12 19:30N 39°48' W 075°25'1 2.1
2017-Sep-12 19:01N 39°49' W 075°24'4 7.5
2017-Sep-12 18:31N 39°51' W 075°20'3 5.1
2017-Sep-12 18:01N 39°51' W 075°16'0 0.0
2017-Sep-12 17:30N 39°51' W 075°16'1 1.4
2017-Sep-12 17:01N 39°51' W 075°15'2 3.5
2017-Sep-12 16:30N 39°52' W 075°13'2 5.0
2017-Sep-12 16:00N 39°51' W 075°16'0 0.4
2017-Sep-12 15:30N 39°51' W 075°16'0 0.2
2017-Sep-12 15:00N 39°51' W 075°16'0 0.7
2017-Sep-12 14:30N 39°51' W 075°16'0 0.0
2017-Sep-12 14:00N 39°51' W 075°16'0 0.0
2017-Sep-12 13:30N 39°51' W 075°16'0 0.0
2017-Sep-12 13:00N 39°51' W 075°16'0 0.0
2017-Sep-12 12:30N 39°51' W 075°16'14 4.3
2017-Sep-12 09:15N 39°43' W 075°31'0 0.1
2017-Sep-12 09:00N 39°43' W 075°31'0 0.0
2017-Sep-12 08:30N 39°43' W 075°31'0 0.0
2017-Sep-12 08:00N 39°43' W 075°31'0 0.0
2017-Sep-12 07:30N 39°43' W 075°31'0 0.0
2017-Sep-12 07:00N 39°43' W 075°31'0 0.0
2017-Sep-12 06:30N 39°43' W 075°31'0 0.0
2017-Sep-12 06:00N 39°43' W 075°31'0 0.0
2017-Sep-12 05:30N 39°43' W 075°31'1 1.1
2017-Sep-12 05:00N 39°42' W 075°31'1 1.7
2017-Sep-12 04:30N 39°43' W 075°31'0 0.2
2017-Sep-12 04:00N 39°43' W 075°31'0 0.4
2017-Sep-12 03:31N 39°43' W 075°31'0 0.0
2017-Sep-12 03:01N 39°43' W 075°31'0 0.0
2017-Sep-12 02:30N 39°43' W 075°31'0 0.0
2017-Sep-12 02:01N 39°43' W 075°31'0 0.0
2017-Sep-12 01:31N 39°43' W 075°31'0 0.0
2017-Sep-12 01:01N 39°43' W 075°31'0 0.0
2017-Sep-12 00:31N 39°43' W 075°31'0 0.0
2017-Sep-12 00:00N 39°43' W 075°31'0 0.0
2017-Sep-11 23:30N 39°43' W 075°31'0 0.0
2017-Sep-11 23:01N 39°43' W 075°31'0 0.0
2017-Sep-11 22:31N 39°43' W 075°31'0 0.0
2017-Sep-11 22:00N 39°43' W 075°31'0 0.0
2017-Sep-11 21:30N 39°43' W 075°31'4 8.8
2017-Sep-11 21:00N 39°47' W 075°28'3 5.5
2017-Sep-11 20:30N 39°48' W 075°25'0 0.0
2017-Sep-11 20:00N 39°48' W 075°25'0 0.0
2017-Sep-11 19:31N 39°48' W 075°25'0 0.6
2017-Sep-11 19:01N 39°48' W 075°25'3 6.7
2017-Sep-11 18:30N 39°46' W 075°29'3 6.9
2017-Sep-11 18:01N 39°43' W 075°31'0 0.0
2017-Sep-11 17:30N 39°43' W 075°31'0 0.0
2017-Sep-11 17:01N 39°43' W 075°31'0 0.0
2017-Sep-11 16:31N 39°43' W 075°31'0 0.0
2017-Sep-11 16:00N 39°43' W 075°31'0 0.0
2017-Sep-11 15:31N 39°43' W 075°31'0 0.0
2017-Sep-11 15:00N 39°43' W 075°31'0 0.0
2017-Sep-11 14:30N 39°43' W 075°31'0 0.0
2017-Sep-11 14:01N 39°43' W 075°31'0 0.0
2017-Sep-11 13:31N 39°43' W 075°31'0 0.0
2017-Sep-11 13:01N 39°43' W 075°31'0 0.0
2017-Sep-11 12:31N 39°43' W 075°31'0 0.0
2017-Sep-11 12:00N 39°43' W 075°31'0 0.0
2017-Sep-11 11:31N 39°43' W 075°31'0 0.0
2017-Sep-11 11:01N 39°43' W 075°31'0 0.1
2017-Sep-11 10:31N 39°43' W 075°31'4 8.7
2017-Sep-11 10:01N 39°39' W 075°33'5 9.1
2017-Sep-11 09:31N 39°34' W 075°33'0 0.9
2017-Sep-11 09:00N 39°34' W 075°33'2 3.9
2017-Sep-11 08:31N 39°35' W 075°35'0 0.0
2017-Sep-11 08:01N 39°35' W 075°35'0 0.0
2017-Sep-11 07:31N 39°35' W 075°35'0 0.0
2017-Sep-11 07:00N 39°35' W 075°35'0 0.0
2017-Sep-11 06:30N 39°35' W 075°35'0 0.0
2017-Sep-11 06:01N 39°35' W 075°35'0 0.0
2017-Sep-11 05:30N 39°35' W 075°35'0 0.0
2017-Sep-11 05:00N 39°35' W 075°35'0 0.0
2017-Sep-11 04:30N 39°35' W 075°35'0 0.0
2017-Sep-11 04:01N 39°35' W 075°35'0 0.0
2017-Sep-11 03:30N 39°35' W 075°35'0 0.0
2017-Sep-11 03:01N 39°35' W 075°35'0 0.0
2017-Sep-11 02:30N 39°35' W 075°35'0 0.0
2017-Sep-11 02:00N 39°35' W 075°35'0 0.0
2017-Sep-11 01:31N 39°35' W 075°35'0 0.0
2017-Sep-11 01:01N 39°35' W 075°35'0 0.0
2017-Sep-11 00:30N 39°35' W 075°35'0 0.0
2017-Sep-11 00:00N 39°35' W 075°35'0 0.0
2017-Sep-10 23:30N 39°35' W 075°35'0 0.0
2017-Sep-10 23:00N 39°35' W 075°35'0 0.0
2017-Sep-10 22:31N 39°35' W 075°35'0 0.0
2017-Sep-10 22:00N 39°35' W 075°35'0 0.0
2017-Sep-10 21:30N 39°35' W 075°35'0 0.3
2017-Sep-10 21:00N 39°35' W 075°35'0 0.1
2017-Sep-10 20:30N 39°35' W 075°35'2 4.5
2017-Sep-10 20:00N 39°33' W 075°33'2 4.6
2017-Sep-10 19:31N 39°35' W 075°35'0 0.0
2017-Sep-10 19:00N 39°35' W 075°35'0 0.0
2017-Sep-10 18:30N 39°35' W 075°35'0 0.0
2017-Sep-10 18:00N 39°35' W 075°35'0 0.0
2017-Sep-10 17:30N 39°35' W 075°35'0 0.0
2017-Sep-10 17:00N 39°35' W 075°35'0 0.0
2017-Sep-10 16:30N 39°35' W 075°35'0 0.0
2017-Sep-10 16:00N 39°35' W 075°35'0 0.0
2017-Sep-10 15:30N 39°35' W 075°35'0 0.0
2017-Sep-10 15:00N 39°35' W 075°35'2 1.9
2017-Sep-10 14:00N 39°37' W 075°35'612.1
2017-Sep-10 13:30N 39°42' W 075°31'611.5
2017-Sep-10 13:00N 39°47' W 075°27'2 4.5
2017-Sep-10 12:30N 39°48' W 075°25'0 0.3
2017-Sep-10 12:00N 39°48' W 075°25'0 0.0
2017-Sep-10 11:30N 39°48' W 075°25'0 0.1
2017-Sep-10 11:00N 39°48' W 075°25'1 2.4
2017-Sep-10 10:30N 39°48' W 075°26'1 1.3
2017-Sep-10 10:00N 39°48' W 075°26'0 0.0
2017-Sep-10 09:30N 39°48' W 075°26'0 0.0
2017-Sep-10 09:00N 39°48' W 075°26'0 0.2
2017-Sep-10 08:30N 39°48' W 075°26'510.9
2017-Sep-10 08:00N 39°44' W 075°30'1 1.8
2017-Sep-10 07:30N 39°43' W 075°31'1 1.3
2017-Sep-10 07:00N 39°43' W 075°30'1 1.5
2017-Sep-10 06:30N 39°43' W 075°31'0 0.0
2017-Sep-10 06:00N 39°43' W 075°31'0 0.0
2017-Sep-10 05:30N 39°43' W 075°31'0 0.0
2017-Sep-10 05:00N 39°43' W 075°31'0 0.0
2017-Sep-10 04:30N 39°43' W 075°31'0 0.0
2017-Sep-10 04:00N 39°43' W 075°31'0 0.0
2017-Sep-10 03:30N 39°43' W 075°31'0 0.0
2017-Sep-10 03:00N 39°43' W 075°31'0 0.0
2017-Sep-10 02:30N 39°43' W 075°31'0 0.0
2017-Sep-10 02:00N 39°43' W 075°31'1 1.5
2017-Sep-10 01:30N 39°42' W 075°31'0 0.7
2017-Sep-10 01:00N 39°43' W 075°31'0 1.0
2017-Sep-10 00:30N 39°43' W 075°31'0 0.0
2017-Sep-10 00:00N 39°43' W 075°31'0 0.0
2017-Sep-09 23:30N 39°43' W 075°31'0 0.0
2017-Sep-09 23:00N 39°43' W 075°31'0 0.0
2017-Sep-09 22:30N 39°43' W 075°31'0 0.0
2017-Sep-09 22:00N 39°43' W 075°31'  

Dump ship's entire track history